Time;durP1;ratioP1;P1;durP2;ratioP2;P2;SDS_P1;SDS_P2;PMS_P1;PMS_P2;Temp;Humidity;BMP_temperature;BMP_pressure;BME280_temperature;BME280_humidity;BME280_pressure;Samples;Min_cycle;Max_cycle;Signal;HPM_P1;HPM_P2
2023/05/05 00:00:31;;;;;;;;;25.00;22.00;;;;;14.48;49.69;99257.78;5997545;29;96316;-61
2023/05/05 00:03:35;;;;;;;;;26.00;25.00;;;;;14.40;49.67;99247.31;5996504;29;96936;-61
2023/05/05 00:06:38;;;;;;;;;24.00;21.75;;;;;14.46;49.14;99259.94;5983245;29;96407;-60
2023/05/05 00:09:42;;;;;;;;;26.80;24.40;;;;;14.48;48.71;99257.78;5977307;29;98773;-60
2023/05/05 00:12:48;;;;;;;;;30.00;28.00;;;;;14.49;48.91;99259.44;5981289;29;96673;-60
2023/05/05 00:15:53;;;;;;;;;23.80;22.80;;;;;14.45;49.14;99263.69;5982449;29;96617;-61
2023/05/05 00:18:56;;;;;;;;;23.40;22.40;;;;;14.39;49.21;99259.22;5982646;29;96706;-60
2023/05/05 00:21:59;;;;;;;;;26.40;25.00;;;;;14.35;49.38;99258.84;5974218;29;96737;-61
2023/05/05 00:25:03;;;;;;;;;26.60;23.00;;;;;14.31;49.97;99253.06;5973775;29;96413;-60
2023/05/05 00:28:27;;;;;;;;;25.00;24.00;;;;;14.22;50.05;99248.25;5981270;29;96449;-61
2023/05/05 00:31:30;;;;;;;;;24.20;21.00;;;;;14.14;50.19;99262.13;5978854;29;96271;-60
2023/05/05 00:34:34;;;;;;;;;20.67;19.00;;;;;14.05;50.65;99250.81;5992719;29;96704;-60
2023/05/05 00:37:37;;;;;;;;;21.60;20.60;;;;;13.93;50.79;99252.69;5997463;29;97345;-60
2023/05/05 00:40:41;;;;;;;;;23.25;22.25;;;;;13.88;51.09;99244.44;5980440;29;96255;-60
2023/05/05 00:43:46;;;;;;;;;22.75;21.50;;;;;13.84;51.16;99235.94;5981554;29;96500;-60
2023/05/05 00:46:49;;;;;;;;;27.00;24.60;;;;;13.83;51.18;99237.00;5980034;29;96409;-60
2023/05/05 00:49:53;;;;;;;;;23.00;20.40;;;;;13.83;51.33;99233.47;5979233;29;96927;-61
2023/05/05 00:53:01;;;;;;;;;25.20;23.00;;;;;13.83;51.21;99238.88;5978905;29;96414;-61
2023/05/05 00:56:05;;;;;;;;;23.00;20.00;;;;;13.75;50.99;99233.81;5981160;29;96259;-60
2023/05/05 00:59:10;;;;;;;;;22.80;21.80;;;;;13.75;51.16;99239.25;5981330;29;97192;-61
2023/05/05 01:02:13;;;;;;;;;23.00;22.00;;;;;13.74;51.13;99234.88;5990275;29;96525;-61
2023/05/05 01:05:18;;;;;;;;;21.00;19.00;;;;;13.70;50.90;99229.09;5977589;29;96291;-60
2023/05/05 01:08:34;;;;;;;;;25.00;24.00;;;;;13.77;50.82;99237.97;5983403;29;96208;-60
2023/05/05 01:11:44;;;;;;;;;27.00;22.67;;;;;13.81;50.74;99236.44;5997463;29;96497;-60
2023/05/05 01:14:58;;;;;;;;;28.50;25.00;;;;;13.77;50.56;99237.97;5981747;29;96473;-60
2023/05/05 01:18:09;;;;;;;;;25.00;23.00;;;;;13.76;50.66;99230.88;5982239;29;96480;-60
2023/05/05 01:21:19;;;;;;;;;24.00;22.00;;;;;13.81;50.33;99238.31;5980151;29;100240;-60
2023/05/05 01:24:43;;;;;;;;;24.00;23.25;;;;;13.80;50.32;99231.25;5975769;29;96779;-61
2023/05/05 01:28:00;;;;;;;;;26.20;21.60;;;;;13.75;50.33;99226.53;5979559;29;96414;-61
2023/05/05 01:31:23;;;;;;;;;22.40;20.00;;;;;13.63;50.22;99219.44;5981702;29;96934;-61
2023/05/05 01:34:34;;;;;;;;;24.00;22.40;;;;;13.62;50.22;99225.91;5967449;29;96451;-60
2023/05/05 01:37:46;;;;;;;;;24.00;21.50;;;;;13.61;49.94;99222.38;5994053;29;96530;-60
2023/05/05 01:40:53;;;;;;;;;23.25;22.00;;;;;13.64;49.61;99221.91;5979774;29;96407;-61
2023/05/05 01:44:01;;;;;;;;;20.80;19.80;;;;;13.61;49.25;99216.97;5980159;29;96499;-61
2023/05/05 01:47:06;;;;;;;;;23.60;22.60;;;;;13.56;49.37;99216.84;5979385;29;98440;-60
2023/05/05 01:50:13;;;;;;;;;23.60;21.60;;;;;13.52;49.59;99218.38;5980459;29;96381;-61
2023/05/05 01:53:19;;;;;;;;;20.25;18.00;;;;;13.47;49.55;99220.13;5980719;29;96325;-61
2023/05/05 01:56:26;;;;;;;;;20.40;17.40;;;;;13.37;49.36;99204.44;5980678;29;96422;-60
2023/05/05 01:59:30;;;;;;;;;15.00;14.00;;;;;13.42;49.04;99208.09;5983675;29;96279;-61
2023/05/05 02:02:36;;;;;;;;;24.75;22.00;;;;;13.42;48.88;99209.97;5974945;29;96351;-60
2023/05/05 02:05:43;;;;;;;;;21.20;20.00;;;;;13.44;48.46;99213.25;5982141;29;96927;-61
2023/05/05 02:08:48;;;;;;;;;15.50;15.00;;;;;13.43;48.44;99209.75;5968322;29;96323;-60
2023/05/05 02:11:52;;;;;;;;;19.60;18.60;;;;;13.41;48.50;99208.31;5980206;29;96941;-60
2023/05/05 02:14:59;;;;;;;;;23.00;21.00;;;;;13.40;48.38;99204.78;5996271;29;96304;-61
2023/05/05 02:18:06;;;;;;;;;23.00;21.00;;;;;13.33;49.01;99205.97;5981076;29;96329;-60
2023/05/05 02:21:13;;;;;;;;;24.40;22.40;;;;;13.29;48.85;99207.47;5982216;29;97012;-60
2023/05/05 02:24:16;;;;;;;;;22.80;21.80;;;;;13.26;48.60;99210.63;5980974;29;96675;-61
2023/05/05 02:27:23;;;;;;;;;18.20;16.20;;;;;13.22;48.74;99212.16;5976317;29;96428;-60
2023/05/05 02:30:29;;;;;;;;;26.20;23.60;;;;;13.16;49.17;99208.50;5980052;29;96524;-60
2023/05/05 02:33:35;;;;;;;;;23.00;21.00;;;;;13.11;49.43;99210.19;5972677;29;96811;-60
2023/05/05 02:36:42;;;;;;;;;19.20;18.60;;;;;13.02;49.68;99209.69;5975318;29;96607;-60
2023/05/05 02:39:57;;;;;;;;;19.50;16.50;;;;;12.99;49.40;99210.16;5997782;29;96945;-60
2023/05/05 02:43:07;;;;;;;;;24.00;21.75;;;;;12.91;50.11;99211.31;5980289;29;96563;-61
2023/05/05 02:46:11;;;;;;;;;22.20;21.00;;;;;12.85;50.29;99222.22;5983106;29;99454;-60
2023/05/05 02:49:17;;;;;;;;;19.80;19.00;;;;;12.82;50.05;99228.09;6000576;29;96505;-60
2023/05/05 02:52:22;;;;;;;;;23.00;23.00;;;;;12.80;50.15;99228.34;5994455;29;96986;-61
2023/05/05 02:55:27;;;;;;;;;22.25;20.75;;;;;12.73;50.78;99214.03;5982887;29;96586;-60
2023/05/05 02:58:37;;;;;;;;;21.50;20.00;;;;;12.61;51.45;99215.84;5985668;29;96293;-60
2023/05/05 03:01:54;;;;;;;;;23.25;21.25;;;;;12.47;51.77;99219.75;5984054;29;96562;-61
2023/05/05 03:05:04;;;;;;;;;21.00;20.00;;;;;12.33;51.80;99232.63;5983315;29;96507;-61
2023/05/05 03:08:20;;;;;;;;;21.80;20.00;;;;;12.34;52.13;99236.16;5998923;29;96367;-60
2023/05/05 03:11:31;;;;;;;;;21.40;20.00;;;;;12.32;52.07;99230.94;5984443;29;96463;-60
2023/05/05 03:14:40;;;;;;;;;20.80;18.20;;;;;12.36;52.39;99224.06;5984030;29;97611;-60
2023/05/05 03:17:46;;;;;;;;;22.00;19.00;;;;;12.43;52.07;99224.81;5991984;29;96812;-61
2023/05/05 03:20:51;;;;;;;;;21.80;20.20;;;;;12.45;52.08;99222.72;5999195;29;96434;-60
2023/05/05 03:23:56;;;;;;;;;22.40;21.60;;;;;12.47;52.25;99228.72;5997533;29;96646;-60
2023/05/05 03:27:00;;;;;;;;;21.00;20.00;;;;;12.51;52.34;99227.19;5977544;29;96435;-61
2023/05/05 03:30:09;;;;;;;;;23.40;20.20;;;;;12.54;52.52;99240.28;5983331;29;97404;-61
2023/05/05 03:33:20;;;;;;;;;27.60;23.00;;;;;12.62;52.50;99225.63;5968556;29;96942;-60
2023/05/05 03:36:23;;;;;;;;;23.50;22.00;;;;;12.64;52.41;99223.53;5999953;29;96326;-61
2023/05/05 03:39:32;;;;;;;;;23.25;22.00;;;;;12.78;52.36;99229.59;5983520;29;96444;-61
2023/05/05 03:42:36;;;;;;;;;27.60;24.80;;;;;12.80;52.75;99225.63;5992836;29;96558;-60
2023/05/05 03:45:39;;;;;;;;;22.00;20.00;;;;;12.92;52.91;99228.38;5981749;29;97008;-61
2023/05/05 03:48:43;;;;;;;;;22.00;20.00;;;;;13.00;52.90;99226.16;5982434;29;99101;-61
2023/05/05 03:51:47;;;;;;;;;24.25;23.50;;;;;13.06;52.74;99221.72;6007538;29;97636;-61
2023/05/05 03:54:53;;;;;;;;;23.75;22.75;;;;;13.13;52.74;99225.19;5983703;29;96305;-61
2023/05/05 03:57:56;;;;;;;;;22.80;22.00;;;;;13.19;52.75;99229.72;5985762;29;96379;-60
2023/05/05 04:00:59;;;;;;;;;23.00;21.00;;;;;13.24;52.67;99234.44;5983231;29;96327;-61
2023/05/05 04:04:03;;;;;;;;;20.00;19.00;;;;;13.30;52.73;99236.19;5980051;29;96860;-60
2023/05/05 04:07:06;;;;;;;;;24.00;20.40;;;;;13.35;52.62;99228.19;5988824;29;96864;-60
2023/05/05 04:10:12;;;;;;;;;23.00;21.60;;;;;13.27;52.81;99229.38;5984715;29;97484;-61
2023/05/05 04:13:15;;;;;;;;;21.60;21.20;;;;;13.30;52.55;99225.34;5983578;29;96228;-61
2023/05/05 04:16:19;;;;;;;;;20.00;18.80;;;;;13.26;52.64;99225.00;5971758;29;97199;-61
2023/05/05 04:19:23;;;;;;;;;24.00;21.00;;;;;13.25;53.01;99227.94;5991201;29;96306;-61
2023/05/05 04:22:26;;;;;;;;;21.60;21.00;;;;;13.28;52.75;99232.91;5982695;29;96973;-61
2023/05/05 04:25:31;;;;;;;;;21.67;18.67;;;;;13.28;52.68;99231.03;5983743;29;96637;-60
2023/05/05 04:28:35;;;;;;;;;21.00;20.00;;;;;13.36;52.61;99229.84;5999620;29;96407;-61
2023/05/05 04:31:38;;;;;;;;;20.25;20.00;;;;;13.41;52.59;99222.69;5983689;29;96338;-60
2023/05/05 04:34:42;;;;;;;;;20.60;19.00;;;;;13.62;51.85;99232.16;5982974;29;96408;-61
2023/05/05 04:37:45;;;;;;;;;23.60;22.60;;;;;13.72;51.55;99234.31;5993886;29;96566;-61
2023/05/05 04:40:50;;;;;;;;;17.50;17.50;;;;;13.84;51.52;99238.66;6022188;29;96382;-61
2023/05/05 04:43:54;;;;;;;;;22.00;20.00;;;;;13.83;50.59;99222.63;6004099;29;96644;-60
2023/05/05 04:46:57;;;;;;;;;19.00;18.50;;;;;14.07;49.95;99228.91;5995389;29;96302;-60
2023/05/05 04:50:01;;;;;;;;;19.20;19.20;;;;;14.19;49.58;99238.69;6018183;29;96331;-60
2023/05/05 04:53:04;;;;;;;;;18.40;17.00;;;;;14.39;49.75;99241.06;5987131;29;97168;-60
2023/05/05 04:56:09;;;;;;;;;21.50;20.00;;;;;14.61;49.62;99249.41;5993756;29;96595;-60
2023/05/05 04:59:14;;;;;;;;;22.80;21.00;;;;;14.83;49.70;99247.69;5981386;29;96393;-61
2023/05/05 05:02:17;;;;;;;;;18.00;18.00;;;;;15.07;48.86;99253.88;5985084;29;96359;-61
2023/05/05 05:05:21;;;;;;;;;17.00;16.00;;;;;15.28;47.80;99247.78;5986594;29;97651;-61
2023/05/05 05:08:24;;;;;;;;;19.80;19.00;;;;;15.57;47.19;99254.88;5995832;29;96833;-60
2023/05/05 05:11:29;;;;;;;;;25.00;19.00;;;;;15.85;46.85;99261.28;5985116;29;96576;-61
2023/05/05 05:14:36;;;;;;;;;18.20;17.00;;;;;16.04;46.58;99254.53;6001737;29;96451;-61
2023/05/05 05:17:40;;;;;;;;;17.67;17.00;;;;;16.19;46.03;99251.22;5991222;29;96345;-60
2023/05/05 05:20:44;;;;;;;;;15.00;14.80;;;;;16.30;45.40;99244.88;5982199;29;96956;-61
2023/05/05 05:23:47;;;;;;;;;17.00;16.00;;;;;16.43;44.59;99249.94;5987993;29;96449;-61
2023/05/05 05:26:52;;;;;;;;;19.00;17.00;;;;;16.55;44.47;99253.41;5970885;29;96579;-61
2023/05/05 05:29:56;;;;;;;;;17.00;15.00;;;;;16.62;43.61;99255.94;5972043;29;97194;-61
2023/05/05 05:33:01;;;;;;;;;18.60;18.60;;;;;16.84;44.08;99270.41;5965134;29;96482;-62
2023/05/05 05:36:05;;;;;;;;;19.60;18.00;;;;;16.94;42.81;99267.81;5955491;29;96922;-61
2023/05/05 05:39:09;;;;;;;;;14.40;14.00;;;;;17.11;42.74;99271.28;5973885;29;96299;-61
2023/05/05 05:42:14;;;;;;;;;16.40;15.00;;;;;17.29;42.88;99272.88;5974106;29;96404;-61
2023/05/05 05:45:18;;;;;;;;;16.00;14.80;;;;;17.50;43.28;99269.25;5979487;29;96957;-61
2023/05/05 05:48:23;;;;;;;;;17.00;15.60;;;;;17.72;42.91;99277.44;5964785;29;96491;-61
2023/05/05 05:51:27;;;;;;;;;18.40;17.40;;;;;17.93;42.06;99272.97;5965554;29;97392;-62
2023/05/05 05:54:31;;;;;;;;;15.00;15.00;;;;;18.13;42.47;99270.41;5961733;29;96445;-61
2023/05/05 05:57:36;;;;;;;;;15.80;14.00;;;;;18.28;41.20;99270.50;5972363;29;96425;-62
2023/05/05 06:00:41;;;;;;;;;16.60;15.60;;;;;18.42;41.26;99274.41;5979239;29;96653;-61
2023/05/05 06:03:46;;;;;;;;;17.20;15.80;;;;;18.48;40.50;99275.28;5968402;29;96382;-61
2023/05/05 06:06:50;;;;;;;;;16.60;14.60;;;;;18.58;39.79;99283.56;5949353;29;98497;-62
2023/05/05 06:09:53;;;;;;;;;18.60;15.60;;;;;18.50;40.06;99284.88;5949048;29;96645;-61
2023/05/05 06:12:58;;;;;;;;;16.60;16.00;;;;;18.41;39.91;99285.63;5950822;29;96325;-61
2023/05/05 06:16:02;;;;;;;;;18.00;17.00;;;;;18.29;40.73;99276.78;5964004;29;96371;-61
2023/05/05 06:19:08;;;;;;;;;19.75;17.75;;;;;18.27;41.04;99289.88;5949827;29;96326;-61
2023/05/05 06:22:12;;;;;;;;;18.00;16.50;;;;;18.30;41.43;99281.16;5949851;29;96460;-61
2023/05/05 06:25:16;;;;;;;;;18.40;16.60;;;;;18.51;41.95;99283.78;5984437;29;96313;-62
2023/05/05 06:28:21;;;;;;;;;18.80;15.80;;;;;18.58;40.82;99283.56;5975889;29;96979;-61
2023/05/05 06:31:25;;;;;;;;;15.60;15.00;;;;;18.66;40.79;99282.25;5987219;29;96280;-61
2023/05/05 06:34:28;;;;;;;;;16.20;14.80;;;;;18.58;40.65;99286.28;5973100;29;96279;-61
2023/05/05 06:37:31;;;;;;;;;16.00;15.80;;;;;18.60;40.75;99295.06;5952115;29;96983;-62
2023/05/05 06:40:35;;;;;;;;;17.60;16.60;;;;;18.76;41.48;99294.06;5952446;29;97107;-62
2023/05/05 06:43:41;;;;;;;;;17.00;15.00;;;;;19.03;40.86;99288.44;5974762;29;96619;-61
2023/05/05 06:46:47;;;;;;;;;16.00;14.40;;;;;19.28;40.20;99290.44;5976655;29;96492;-62
2023/05/05 06:49:51;;;;;;;;;16.80;15.80;;;;;19.62;40.34;99280.72;5976976;29;96573;-62
2023/05/05 06:52:54;;;;;;;;;15.00;14.25;;;;;19.82;39.54;99288.13;5975500;29;96481;-62
2023/05/05 06:55:58;;;;;;;;;15.60;15.00;;;;;20.12;38.26;99285.44;5953076;29;96392;-61
2023/05/05 06:59:02;;;;;;;;;15.00;14.00;;;;;20.30;37.66;99284.03;5953723;29;96663;-62
2023/05/05 07:02:06;;;;;;;;;18.75;18.00;;;;;20.44;38.05;99285.13;5952380;29;96383;-61
2023/05/05 07:05:09;;;;;;;;;14.50;13.00;;;;;20.43;36.37;99290.91;5954055;29;96319;-62
2023/05/05 07:08:13;;;;;;;;;14.60;13.60;;;;;20.59;37.00;99293.34;5962701;29;97066;-61
2023/05/05 07:11:16;;;;;;;;;11.75;11.00;;;;;20.79;36.24;99286.97;5986317;29;97154;-62
2023/05/05 07:14:21;;;;;;;;;12.25;11.75;;;;;21.02;36.08;99291.00;5994123;29;96937;-61
2023/05/05 07:17:26;;;;;;;;;11.00;11.00;;;;;21.35;36.81;99286.81;5963975;29;96350;-60
2023/05/05 07:20:30;;;;;;;;;10.75;10.00;;;;;21.66;35.48;99285.50;5975458;29;96582;-60
2023/05/05 07:23:33;;;;;;;;;12.00;11.60;;;;;21.86;33.83;99284.53;5975197;29;96503;-60
2023/05/05 07:26:36;;;;;;;;;12.00;11.20;;;;;21.94;34.64;99279.28;5960308;29;96787;-60
2023/05/05 07:29:41;;;;;;;;;12.40;11.40;;;;;21.81;33.57;99273.59;5953002;29;96929;-60
2023/05/05 07:32:44;;;;;;;;;11.20;9.80;;;;;21.90;33.87;99280.13;5951875;29;97314;-60
2023/05/05 07:35:48;;;;;;;;;12.00;11.00;;;;;22.22;34.63;99280.44;5962753;29;97638;-60
2023/05/05 07:38:51;;;;;;;;;10.00;9.00;;;;;22.38;32.21;99270.94;5975649;29;96448;-60
2023/05/05 07:41:55;;;;;;;;;10.60;9.60;;;;;22.44;31.92;99269.78;5974519;29;96664;-60
2023/05/05 07:44:59;;;;;;;;;10.40;9.40;;;;;22.38;31.72;99265.44;5975222;29;96431;-60
2023/05/05 07:48:03;;;;;;;;;7.50;7.00;;;;;22.70;33.37;99275.88;5976119;29;96711;-60
2023/05/05 07:51:06;;;;;;;;;11.00;11.00;;;;;23.02;31.03;99271.69;5976212;29;96328;-60
2023/05/05 07:54:10;;;;;;;;;12.20;11.00;;;;;23.35;31.91;99273.44;5976232;29;96657;-60
2023/05/05 07:57:13;;;;;;;;;11.00;9.00;;;;;23.74;32.45;99274.00;5954482;29;96326;-60
2023/05/05 08:00:20;;;;;;;;;14.60;13.60;;;;;23.70;31.27;99267.44;5952787;29;96308;-60
2023/05/05 08:03:23;;;;;;;;;13.20;11.80;;;;;23.85;31.70;99265.59;5953435;29;96633;-60
2023/05/05 08:06:30;;;;;;;;;12.00;11.00;;;;;23.82;31.93;99272.50;5968427;29;96411;-60
2023/05/05 08:09:34;;;;;;;;;11.60;11.00;;;;;23.83;30.99;99254.88;5990359;29;97128;-60
2023/05/05 08:12:37;;;;;;;;;11.00;11.00;;;;;23.98;31.50;99262.88;5975836;29;96531;-60
2023/05/05 08:15:43;;;;;;;;;13.00;12.00;;;;;23.55;30.23;99261.38;5970510;29;96309;-60
2023/05/05 08:18:47;;;;;;;;;11.00;11.00;;;;;23.79;31.52;99266.78;5971995;29;96634;-60
2023/05/05 08:21:50;;;;;;;;;8.00;8.00;;;;;23.31;28.36;99255.91;5975511;29;96500;-60
2023/05/05 08:24:54;;;;;;;;;10.25;10.00;;;;;23.28;31.29;99261.97;5975482;29;96892;-60
2023/05/05 08:27:57;;;;;;;;;8.00;7.20;;;;;23.50;29.14;99266.94;5975135;29;96379;-59
2023/05/05 08:31:05;;;;;;;;;9.00;8.00;;;;;23.68;30.71;99266.13;5974401;29;96506;-60
2023/05/05 08:34:08;;;;;;;;;8.00;8.00;;;;;23.93;29.49;99262.97;5975712;29;96975;-60
2023/05/05 08:37:12;;;;;;;;;7.00;7.00;;;;;24.13;28.46;99265.38;5968730;29;96814;-60
2023/05/05 08:40:15;;;;;;;;;8.00;6.00;;;;;24.21;26.17;99268.59;5953238;29;97151;-61
2023/05/05 08:43:21;;;;;;;;;5.00;5.00;;;;;24.05;26.13;99268.00;5968905;29;96402;-60
2023/05/05 08:46:28;;;;;;;;;7.00;7.00;;;;;24.30;26.92;99258.50;5974349;29;96440;-60
2023/05/05 08:49:40;;;;;;;;;5.50;5.50;;;;;24.66;27.25;99254.00;5951121;29;96481;-60
2023/05/05 08:52:47;;;;;;;;;5.00;5.00;;;;;24.35;24.54;99258.41;5952216;29;96463;-60
2023/05/05 08:55:56;;;;;;;;;7.60;7.60;;;;;24.15;26.46;99252.13;5951685;29;96984;-60
2023/05/05 08:59:01;;;;;;;;;6.00;6.00;;;;;24.06;27.46;99245.66;5971197;29;96594;-60
2023/05/05 09:02:09;;;;;;;;;6.20;6.00;;;;;24.07;25.04;99229.97;5973157;29;97050;-60
2023/05/05 09:05:13;;;;;;;;;6.00;6.00;;;;;24.65;27.06;99241.31;5973044;29;97161;-60
2023/05/05 09:08:17;;;;;;;;;5.60;5.60;;;;;25.09;26.18;99251.75;5986658;29;96547;-60
2023/05/05 09:11:22;;;;;;;;;4.20;4.20;;;;;25.18;24.76;99258.19;5971075;29;96708;-61
2023/05/05 09:14:25;;;;;;;;;7.00;5.60;;;;;25.14;24.75;99257.19;5966001;29;96469;-60
2023/05/05 09:17:47;;;;;;;;;5.00;4.60;;;;;25.13;22.87;99238.97;5950683;29;97085;-62
2023/05/05 09:20:51;;;;;;;;;5.00;5.00;;;;;25.22;22.80;99250.09;5952208;29;96364;-62
2023/05/05 09:24:05;;;;;;;;;6.67;6.67;;;;;25.23;24.28;99257.25;5971019;29;98399;-62
2023/05/05 09:27:22;;;;;;;;;4.00;4.00;;;;;25.17;23.38;99250.25;5973502;29;98823;-62
2023/05/05 09:30:26;;;;;;;;;3.25;3.25;;;;;25.34;23.69;99251.22;5974064;29;96421;-62
2023/05/05 09:33:31;;;;;;;;;6.00;6.00;;;;;24.86;22.67;99261.88;5971223;29;98578;-62
2023/05/05 09:36:43;;;;;;;;;4.50;4.50;;;;;25.14;25.20;99250.84;5973585;29;96456;-62
2023/05/05 09:39:54;;;;;;;;;7.00;6.00;;;;;25.23;24.28;99246.22;5996136;29;97063;-62
2023/05/05 09:43:01;;;;;;;;;6.80;6.00;;;;;25.73;24.59;99255.34;5983032;29;96835;-62
2023/05/05 09:46:08;;;;;;;;;6.40;6.40;;;;;26.22;24.05;99260.78;5965391;29;96669;-62
2023/05/05 09:49:15;;;;;;;;;4.00;4.00;;;;;26.20;22.39;99260.22;5951569;29;96380;-62
2023/05/05 09:52:18;;;;;;;;;5.20;5.20;;;;;25.63;22.77;99250.88;5951721;29;97553;-62
2023/05/05 09:55:23;;;;;;;;;5.00;5.00;;;;;25.60;23.17;99250.69;5959544;29;96285;-63
2023/05/05 09:58:28;;;;;;;;;7.00;6.00;;;;;26.04;24.26;99250.72;5974510;29;96328;-62
2023/05/05 10:01:31;;;;;;;;;6.00;6.00;;;;;25.92;22.75;99244.94;5973749;29;96641;-63
2023/05/05 10:04:36;;;;;;;;;5.00;5.00;;;;;25.70;23.73;99242.97;5972379;29;96837;-62
2023/05/05 10:07:41;;;;;;;;;5.00;4.40;;;;;25.93;24.04;99248.50;5974263;29;96350;-62
2023/05/05 10:10:50;;;;;;;;;4.00;4.00;;;;;26.29;23.96;99244.53;5971567;29;98546;-62
2023/05/05 10:13:54;;;;;;;;;5.80;5.00;;;;;26.59;24.18;99245.69;5969029;29;96648;-62
2023/05/05 10:17:00;;;;;;;;;5.00;4.60;;;;;26.27;22.21;99238.53;5983933;29;96464;-62
2023/05/05 10:20:10;;;;;;;;;5.00;5.00;;;;;26.30;21.85;99234.31;5975045;29;96818;-62
2023/05/05 10:23:18;;;;;;;;;7.75;7.00;;;;;26.26;23.13;99238.84;5981252;29;97463;-62
2023/05/05 10:26:23;;;;;;;;;6.50;5.00;;;;;26.34;24.14;99226.22;5963252;29;96514;-62
2023/05/05 10:29:36;;;;;;;;;4.00;4.00;;;;;26.46;25.25;99226.44;5950525;29;98182;-62
2023/05/05 10:32:44;;;;;;;;;5.00;4.00;;;;;26.56;24.48;99231.69;5958769;29;96271;-62
2023/05/05 10:36:09;;;;;;;;;9.00;7.40;;;;;26.54;24.27;99231.16;5964922;29;96369;-62
2023/05/05 10:39:15;;;;;;;;;6.00;6.00;;;;;26.68;24.79;99216.09;5948740;29;98524;-62
2023/05/05 10:42:19;;;;;;;;;8.00;7.00;;;;;27.04;23.77;99212.34;5958003;29;96563;-62
2023/05/05 10:45:22;;;;;;;;;4.60;4.60;;;;;26.96;23.41;99215.91;5973570;29;96570;-63
2023/05/05 10:48:35;;;;;;;;;6.40;6.40;;;;;27.28;24.41;99212.72;5972077;29;96641;-62
2023/05/05 10:51:52;;;;;;;;;6.40;6.40;;;;;27.15;23.91;99216.44;5950620;29;97183;-63
2023/05/05 10:55:06;;;;;;;;;6.00;6.00;;;;;27.12;23.90;99211.56;5950461;29;96623;-62
2023/05/05 10:58:33;;;;;;;;;7.20;7.00;;;;;27.39;23.96;99207.69;5985465;29;96764;-62
2023/05/05 11:01:53;;;;;;;;;9.40;9.00;;;;;27.61;23.36;99204.00;5984112;29;97847;-62
2023/05/05 11:05:16;;;;;;;;;4.40;4.40;;;;;27.96;23.19;99209.16;5995640;29;96259;-62
2023/05/05 11:08:27;;;;;;;;;8.00;7.25;;;;;28.30;23.44;99205.53;5996389;29;96936;-62
2023/05/05 11:12:04;;;;;;;;;7.00;6.60;;;;;28.44;21.86;99192.25;5998113;29;96381;-62
2023/05/05 11:15:36;;;;;;;;;7.40;7.40;;;;;28.54;23.32;99195.84;5998336;29;97008;-62
2023/05/05 11:18:43;;;;;;;;;5.00;5.00;;;;;28.57;23.18;99193.19;6014384;29;96204;-62
2023/05/05 11:22:00;;;;;;;;;4.40;4.00;;;;;28.79;22.54;99194.91;5992976;29;96025;-63
2023/05/05 11:25:45;;;;;;;;;5.00;5.00;;;;;28.56;21.52;99196.31;5997905;29;96299;-62
2023/05/05 11:29:11;;;;;;;;;6.00;6.00;;;;;28.47;21.48;99184.44;5997933;29;96656;-62
2023/05/05 11:32:15;;;;;;;;;4.40;4.00;;;;;28.71;22.40;99179.09;5968250;29;96957;-62
2023/05/05 11:35:18;;;;;;;;;6.00;6.00;;;;;28.64;21.20;99173.25;5992616;29;96426;-62
2023/05/05 11:38:26;;;;;;;;;5.00;4.00;;;;;28.83;23.06;99188.34;5985630;29;96691;-62
2023/05/05 11:41:57;;;;;;;;;5.00;4.25;;;;;29.00;22.34;99184.69;5989036;29;96686;-62
2023/05/05 11:45:02;;;;;;;;;6.75;6.75;;;;;28.64;22.90;99181.56;6013142;29;96261;-62
2023/05/05 11:48:24;;;;;;;;;5.00;4.60;;;;;28.58;22.55;99183.75;5989945;29;97002;-62
2023/05/05 11:51:28;;;;;;;;;6.60;6.00;;;;;28.71;23.01;99191.03;5999717;29;96246;-62
2023/05/05 11:54:33;;;;;;;;;5.20;4.20;;;;;28.59;21.94;99187.34;5987966;29;96287;-62
2023/05/05 11:57:36;;;;;;;;;8.60;7.60;;;;;28.50;23.08;99176.25;5977898;29;96679;-62
2023/05/05 12:00:41;;;;;;;;;6.60;6.20;;;;;28.52;22.05;99170.38;5988049;29;96588;-62
2023/05/05 12:03:44;;;;;;;;;6.00;6.00;;;;;28.72;22.58;99178.00;5999533;29;96800;-62
2023/05/05 12:06:48;;;;;;;;;4.80;4.80;;;;;28.94;22.83;99172.13;5993611;29;96535;-62
2023/05/05 12:09:52;;;;;;;;;5.50;5.00;;;;;29.22;22.79;99169.69;5989764;29;96460;-62
2023/05/05 12:12:55;;;;;;;;;7.00;7.00;;;;;29.34;21.52;99172.53;5998689;29;96506;-62
2023/05/05 12:16:09;;;;;;;;;5.60;5.20;;;;;29.22;21.87;99178.81;5985435;29;96633;-62
2023/05/05 12:19:13;;;;;;;;;7.00;5.60;;;;;29.04;22.13;99174.53;5989365;29;96320;-62
2023/05/05 12:22:21;;;;;;;;;6.40;6.00;;;;;29.00;21.63;99173.56;5997475;29;96772;-63
2023/05/05 12:25:25;;;;;;;;;7.00;7.00;;;;;28.28;21.58;99168.19;5998850;29;96881;-62
2023/05/05 12:28:43;;;;;;;;;6.20;5.20;;;;;27.91;22.96;99169.72;5996447;29;96896;-62
2023/05/05 12:31:48;;;;;;;;;5.00;4.00;;;;;28.09;23.72;99160.22;5996899;29;96499;-62
2023/05/05 12:34:56;;;;;;;;;6.75;6.00;;;;;28.23;22.22;99151.75;5997892;29;96294;-62
2023/05/05 12:37:59;;;;;;;;;5.20;4.80;;;;;28.32;22.66;99161.66;5978339;29;97004;-62
2023/05/05 12:41:03;;;;;;;;;8.60;8.00;;;;;28.24;21.50;99154.19;5986485;29;96870;-62
2023/05/05 12:44:06;;;;;;;;;7.00;6.00;;;;;28.29;23.15;99156.78;5993482;29;97129;-62
2023/05/05 12:47:14;;;;;;;;;7.00;7.00;;;;;28.25;22.15;99157.75;6005276;29;96368;-62
2023/05/05 12:50:29;;;;;;;;;8.00;8.00;;;;;28.32;22.76;99153.34;5977423;29;96441;-62
2023/05/05 12:53:32;;;;;;;;;6.60;6.60;;;;;28.68;23.40;99154.81;5995015;29;97562;-62
2023/05/05 12:56:37;;;;;;;;;8.00;7.00;;;;;28.95;22.18;99146.00;5973264;29;96606;-62
2023/05/05 12:59:41;;;;;;;;;8.00;8.00;;;;;28.71;21.16;99154.97;5985094;29;96607;-62
2023/05/05 13:02:46;;;;;;;;;8.00;8.00;;;;;28.64;22.41;99142.72;5997343;29;96826;-62
2023/05/05 13:05:49;;;;;;;;;7.00;7.00;;;;;28.86;21.71;99142.47;5997444;29;96399;-62
2023/05/05 13:08:52;;;;;;;;;5.00;5.00;;;;;28.85;21.26;99130.56;5997057;29;97922;-62
2023/05/05 13:11:56;;;;;;;;;5.00;5.00;;;;;28.70;20.99;99128.34;5976696;29;96355;-62
2023/05/05 13:15:00;;;;;;;;;4.00;4.00;;;;;28.88;21.49;99120.78;5973589;29;96265;-62
2023/05/05 13:18:04;;;;;;;;;3.00;3.00;;;;;29.06;20.89;99125.03;5996424;29;97515;-62
2023/05/05 13:21:08;;;;;;;;;5.00;5.00;;;;;29.12;20.95;99114.56;5986806;29;97413;-62
2023/05/05 13:24:11;;;;;;;;;3.00;3.00;;;;;29.12;21.20;99114.56;6011127;29;96901;-62
2023/05/05 13:27:30;;;;;;;;;5.00;5.00;;;;;28.98;20.85;99114.00;5997278;29;96447;-62
2023/05/05 13:30:33;;;;;;;;;6.20;5.80;;;;;29.01;20.87;99116.91;5968999;29;97636;-62
2023/05/05 13:33:38;;;;;;;;;7.00;7.00;;;;;29.10;20.15;99111.28;5978879;29;96295;-62
2023/05/05 13:36:41;;;;;;;;;5.20;5.00;;;;;28.61;19.21;99104.56;5973443;29;96600;-62
2023/05/05 13:39:45;;;;;;;;;5.00;4.40;;;;;28.53;20.30;99100.72;5966819;29;96681;-60
2023/05/05 13:42:48;;;;;;;;;8.00;8.00;;;;;28.57;19.01;99103.63;5980060;29;97219;-60
2023/05/05 13:45:52;;;;;;;;;8.00;8.00;;;;;28.32;19.42;99099.84;5988036;29;96282;-61
2023/05/05 13:48:57;;;;;;;;;7.00;6.00;;;;;28.37;20.39;99089.38;5958847;29;97405;-61
2023/05/05 13:52:00;;;;;;;;;6.60;6.00;;;;;28.33;18.96;99096.72;5955692;29;96577;-60
2023/05/05 13:55:04;;;;;;;;;3.80;3.80;;;;;28.50;20.16;99089.44;5973903;29;96284;-61
2023/05/05 13:58:07;;;;;;;;;5.00;5.00;;;;;28.51;19.51;99086.34;5967493;29;96413;-61
2023/05/05 14:01:10;;;;;;;;;7.00;7.00;;;;;28.59;20.63;99088.25;5949603;29;99359;-60
2023/05/05 14:04:15;;;;;;;;;6.00;6.00;;;;;28.21;19.13;99081.94;5949470;29;96341;-60
2023/05/05 14:07:20;;;;;;;;;8.00;8.00;;;;;27.84;19.48;99083.53;5934647;29;96759;-60
2023/05/05 14:10:25;;;;;;;;;6.00;5.20;;;;;27.65;20.25;99080.31;5956550;29;98851;-61
2023/05/05 14:13:28;;;;;;;;;5.40;5.40;;;;;27.34;19.66;99083.25;5973945;29;96538;-60
2023/05/05 14:16:31;;;;;;;;;5.00;4.75;;;;;26.70;19.62;99075.56;5973735;29;96308;-60
2023/05/05 14:19:36;;;;;;;;;5.00;5.00;;;;;26.49;20.35;99071.75;5972017;29;96211;-61
2023/05/05 14:22:41;;;;;;;;;7.25;7.25;;;;;26.61;20.81;99071.16;5950909;29;96335;-60
2023/05/05 14:25:44;;;;;;;;;6.40;6.40;;;;;26.87;20.71;99074.00;5951014;29;96333;-61